sensor_id;sensor_type;location;lat;lon;timestamp;P1;durP1;ratioP1;P2;durP2;ratioP2
34767;SDS011;21755;43.608;1.236;2023-02-28T00:00:16;11.35;;;5.20;;
34767;SDS011;21755;43.608;1.236;2023-02-28T00:02:42;14.75;;;6.40;;
34767;SDS011;21755;43.608;1.236;2023-02-28T00:05:10;15.57;;;7.25;;
34767;SDS011;21755;43.608;1.236;2023-02-28T00:07:37;17.70;;;7.45;;
34767;SDS011;21755;43.608;1.236;2023-02-28T00:10:04;18.08;;;7.18;;
34767;SDS011;21755;43.608;1.236;2023-02-28T00:12:32;11.82;;;6.43;;
34767;SDS011;21755;43.608;1.236;2023-02-28T00:14:59;25.77;;;10.27;;
34767;SDS011;21755;43.608;1.236;2023-02-28T00:17:25;14.90;;;7.22;;
34767;SDS011;21755;43.608;1.236;2023-02-28T00:19:51;8.02;;;4.75;;
34767;SDS011;21755;43.608;1.236;2023-02-28T00:22:18;8.57;;;4.10;;
34767;SDS011;21755;43.608;1.236;2023-02-28T00:24:45;14.27;;;5.82;;
34767;SDS011;21755;43.608;1.236;2023-02-28T00:27:12;23.13;;;8.77;;
34767;SDS011;21755;43.608;1.236;2023-02-28T00:29:39;11.95;;;5.82;;
34767;SDS011;21755;43.608;1.236;2023-02-28T00:32:05;8.15;;;4.30;;
34767;SDS011;21755;43.608;1.236;2023-02-28T00:34:31;11.57;;;5.13;;
34767;SDS011;21755;43.608;1.236;2023-02-28T00:37:03;17.92;;;7.65;;
34767;SDS011;21755;43.608;1.236;2023-02-28T00:39:34;10.68;;;5.10;;
34767;SDS011;21755;43.608;1.236;2023-02-28T00:42:01;10.10;;;5.32;;
34767;SDS011;21755;43.608;1.236;2023-02-28T00:44:28;12.93;;;5.32;;
34767;SDS011;21755;43.608;1.236;2023-02-28T00:46:54;13.02;;;6.22;;
34767;SDS011;21755;43.608;1.236;2023-02-28T00:49:21;9.07;;;4.63;;
34767;SDS011;21755;43.608;1.236;2023-02-28T00:51:48;8.15;;;4.97;;
34767;SDS011;21755;43.608;1.236;2023-02-28T00:54:14;12.18;;;5.90;;
34767;SDS011;21755;43.608;1.236;2023-02-28T00:56:40;11.60;;;5.05;;
34767;SDS011;21755;43.608;1.236;2023-02-28T00:59:06;11.30;;;5.05;;
34767;SDS011;21755;43.608;1.236;2023-02-28T01:01:32;10.15;;;4.90;;
34767;SDS011;21755;43.608;1.236;2023-02-28T01:03:58;8.65;;;5.18;;
34767;SDS011;21755;43.608;1.236;2023-02-28T01:06:24;10.95;;;5.53;;
34767;SDS011;21755;43.608;1.236;2023-02-28T01:08:49;13.00;;;6.70;;
34767;SDS011;21755;43.608;1.236;2023-02-28T01:11:16;13.82;;;6.05;;
34767;SDS011;21755;43.608;1.236;2023-02-28T01:13:43;9.52;;;5.30;;
34767;SDS011;21755;43.608;1.236;2023-02-28T01:16:11;10.75;;;4.80;;
34767;SDS011;21755;43.608;1.236;2023-02-28T01:18:38;13.00;;;5.50;;
34767;SDS011;21755;43.608;1.236;2023-02-28T01:21:05;9.68;;;5.45;;
34767;SDS011;21755;43.608;1.236;2023-02-28T01:23:32;10.60;;;6.05;;
34767;SDS011;21755;43.608;1.236;2023-02-28T01:26:09;11.55;;;5.20;;
34767;SDS011;21755;43.608;1.236;2023-02-28T01:28:37;7.78;;;5.28;;
34767;SDS011;21755;43.608;1.236;2023-02-28T01:31:02;9.02;;;4.93;;
34767;SDS011;21755;43.608;1.236;2023-02-28T01:33:29;11.95;;;6.00;;
34767;SDS011;21755;43.608;1.236;2023-02-28T01:35:58;9.02;;;5.20;;
34767;SDS011;21755;43.608;1.236;2023-02-28T01:38:25;9.20;;;5.28;;
34767;SDS011;21755;43.608;1.236;2023-02-28T01:40:51;10.82;;;5.40;;
34767;SDS011;21755;43.608;1.236;2023-02-28T01:43:21;10.25;;;5.32;;
34767;SDS011;21755;43.608;1.236;2023-02-28T01:45:54;7.55;;;4.55;;
34767;SDS011;21755;43.608;1.236;2023-02-28T01:48:23;9.82;;;5.10;;
34767;SDS011;21755;43.608;1.236;2023-02-28T01:50:52;10.25;;;4.80;;
34767;SDS011;21755;43.608;1.236;2023-02-28T01:53:21;11.15;;;4.95;;
34767;SDS011;21755;43.608;1.236;2023-02-28T01:55:51;7.30;;;4.72;;
34767;SDS011;21755;43.608;1.236;2023-02-28T01:58:18;7.95;;;4.68;;
34767;SDS011;21755;43.608;1.236;2023-02-28T02:00:45;9.52;;;5.45;;
34767;SDS011;21755;43.608;1.236;2023-02-28T02:03:14;9.50;;;5.57;;
34767;SDS011;21755;43.608;1.236;2023-02-28T02:05:44;8.80;;;5.30;;
34767;SDS011;21755;43.608;1.236;2023-02-28T02:08:17;9.18;;;5.22;;
34767;SDS011;21755;43.608;1.236;2023-02-28T02:10:50;9.45;;;5.45;;
34767;SDS011;21755;43.608;1.236;2023-02-28T02:27:28;10.00;;;5.05;;
34767;SDS011;21755;43.608;1.236;2023-02-28T02:30:27;9.40;;;5.30;;
34767;SDS011;21755;43.608;1.236;2023-02-28T02:33:09;8.52;;;4.97;;
34767;SDS011;21755;43.608;1.236;2023-02-28T02:35:47;10.73;;;5.45;;
34767;SDS011;21755;43.608;1.236;2023-02-28T02:41:08;8.98;;;5.65;;
34767;SDS011;21755;43.608;1.236;2023-02-28T02:43:46;7.95;;;5.10;;
34767;SDS011;21755;43.608;1.236;2023-02-28T02:46:22;8.48;;;4.70;;
34767;SDS011;21755;43.608;1.236;2023-02-28T02:48:54;7.78;;;4.93;;
34767;SDS011;21755;43.608;1.236;2023-02-28T02:51:22;7.75;;;4.72;;
34767;SDS011;21755;43.608;1.236;2023-02-28T02:53:52;12.70;;;5.32;;
34767;SDS011;21755;43.608;1.236;2023-02-28T02:56:26;12.95;;;5.20;;
34767;SDS011;21755;43.608;1.236;2023-02-28T02:58:55;11.27;;;5.30;;
34767;SDS011;21755;43.608;1.236;2023-02-28T03:01:26;8.47;;;5.23;;
34767;SDS011;21755;43.608;1.236;2023-02-28T03:03:56;9.45;;;5.57;;
34767;SDS011;21755;43.608;1.236;2023-02-28T03:06:25;11.77;;;5.70;;
34767;SDS011;21755;43.608;1.236;2023-02-28T03:08:51;11.18;;;5.18;;
34767;SDS011;21755;43.608;1.236;2023-02-28T03:11:17;14.38;;;6.30;;
34767;SDS011;21755;43.608;1.236;2023-02-28T03:24:49;8.40;;;5.43;;
34767;SDS011;21755;43.608;1.236;2023-02-28T03:27:29;8.40;;;5.25;;
34767;SDS011;21755;43.608;1.236;2023-02-28T03:30:33;11.32;;;6.57;;
34767;SDS011;21755;43.608;1.236;2023-02-28T03:33:08;10.55;;;5.60;;
34767;SDS011;21755;43.608;1.236;2023-02-28T03:35:52;9.30;;;5.70;;
34767;SDS011;21755;43.608;1.236;2023-02-28T03:38:44;9.40;;;5.88;;
34767;SDS011;21755;43.608;1.236;2023-02-28T03:41:31;13.10;;;5.95;;
34767;SDS011;21755;43.608;1.236;2023-02-28T03:44:07;11.30;;;5.05;;
34767;SDS011;21755;43.608;1.236;2023-02-28T03:46:41;11.23;;;5.63;;
34767;SDS011;21755;43.608;1.236;2023-02-28T03:49:56;8.63;;;5.28;;
34767;SDS011;21755;43.608;1.236;2023-02-28T03:52:08;9.75;;;5.70;;
34767;SDS011;21755;43.608;1.236;2023-02-28T03:54:37;11.20;;;5.85;;
34767;SDS011;21755;43.608;1.236;2023-02-28T03:57:15;8.35;;;5.30;;
34767;SDS011;21755;43.608;1.236;2023-02-28T04:00:03;10.18;;;5.60;;
34767;SDS011;21755;43.608;1.236;2023-02-28T04:02:35;11.05;;;5.85;;
34767;SDS011;21755;43.608;1.236;2023-02-28T04:05:01;7.60;;;5.15;;
34767;SDS011;21755;43.608;1.236;2023-02-28T04:07:30;10.18;;;5.75;;
34767;SDS011;21755;43.608;1.236;2023-02-28T04:09:56;8.85;;;5.40;;
34767;SDS011;21755;43.608;1.236;2023-02-28T04:12:23;11.93;;;5.85;;
34767;SDS011;21755;43.608;1.236;2023-02-28T04:14:49;12.73;;;6.38;;
34767;SDS011;21755;43.608;1.236;2023-02-28T04:17:15;11.80;;;5.75;;
34767;SDS011;21755;43.608;1.236;2023-02-28T04:19:42;11.07;;;5.60;;
34767;SDS011;21755;43.608;1.236;2023-02-28T04:22:08;12.07;;;5.88;;
34767;SDS011;21755;43.608;1.236;2023-02-28T04:24:34;9.57;;;5.43;;
34767;SDS011;21755;43.608;1.236;2023-02-28T04:27:00;8.13;;;5.15;;
34767;SDS011;21755;43.608;1.236;2023-02-28T04:29:27;10.57;;;5.97;;
34767;SDS011;21755;43.608;1.236;2023-02-28T04:31:55;16.58;;;5.65;;
34767;SDS011;21755;43.608;1.236;2023-02-28T04:34:25;9.32;;;5.60;;
34767;SDS011;21755;43.608;1.236;2023-02-28T04:36:52;9.77;;;5.13;;
34767;SDS011;21755;43.608;1.236;2023-02-28T04:39:23;10.48;;;5.55;;
34767;SDS011;21755;43.608;1.236;2023-02-28T04:41:49;9.40;;;5.97;;
34767;SDS011;21755;43.608;1.236;2023-02-28T04:44:16;11.02;;;5.82;;
34767;SDS011;21755;43.608;1.236;2023-02-28T04:46:42;14.20;;;7.10;;
34767;SDS011;21755;43.608;1.236;2023-02-28T04:49:12;9.43;;;5.80;;
34767;SDS011;21755;43.608;1.236;2023-02-28T04:51:38;10.15;;;6.10;;
34767;SDS011;21755;43.608;1.236;2023-02-28T04:54:04;12.20;;;6.78;;
34767;SDS011;21755;43.608;1.236;2023-02-28T04:56:31;12.45;;;6.05;;
34767;SDS011;21755;43.608;1.236;2023-02-28T04:58:57;10.50;;;6.10;;
34767;SDS011;21755;43.608;1.236;2023-02-28T05:01:24;10.15;;;6.10;;
34767;SDS011;21755;43.608;1.236;2023-02-28T05:03:53;11.35;;;6.78;;
34767;SDS011;21755;43.608;1.236;2023-02-28T05:06:20;10.93;;;6.20;;
34767;SDS011;21755;43.608;1.236;2023-02-28T05:08:49;11.45;;;6.68;;
34767;SDS011;21755;43.608;1.236;2023-02-28T05:13:51;11.50;;;6.40;;
34767;SDS011;21755;43.608;1.236;2023-02-28T05:16:18;9.48;;;6.15;;
34767;SDS011;21755;43.608;1.236;2023-02-28T05:18:45;11.10;;;6.90;;
34767;SDS011;21755;43.608;1.236;2023-02-28T05:24:03;14.13;;;6.90;;
34767;SDS011;21755;43.608;1.236;2023-02-28T05:26:34;15.93;;;7.47;;
34767;SDS011;21755;43.608;1.236;2023-02-28T05:29:01;14.27;;;6.95;;
34767;SDS011;21755;43.608;1.236;2023-02-28T05:31:27;13.00;;;7.45;;
34767;SDS011;21755;43.608;1.236;2023-02-28T05:33:53;12.93;;;7.43;;
34767;SDS011;21755;43.608;1.236;2023-02-28T05:36:19;12.23;;;7.05;;
34767;SDS011;21755;43.608;1.236;2023-02-28T05:38:46;14.77;;;7.25;;
34767;SDS011;21755;43.608;1.236;2023-02-28T05:41:13;14.73;;;8.20;;
34767;SDS011;21755;43.608;1.236;2023-02-28T05:43:39;12.38;;;6.68;;
34767;SDS011;21755;43.608;1.236;2023-02-28T05:46:06;15.75;;;7.25;;
34767;SDS011;21755;43.608;1.236;2023-02-28T05:48:34;11.70;;;7.13;;
34767;SDS011;21755;43.608;1.236;2023-02-28T05:51:01;12.52;;;7.07;;
34767;SDS011;21755;43.608;1.236;2023-02-28T05:53:27;10.15;;;6.78;;
34767;SDS011;21755;43.608;1.236;2023-02-28T05:55:54;11.50;;;7.30;;
34767;SDS011;21755;43.608;1.236;2023-02-28T05:58:20;12.40;;;7.03;;
34767;SDS011;21755;43.608;1.236;2023-02-28T06:00:46;11.90;;;7.13;;
34767;SDS011;21755;43.608;1.236;2023-02-28T06:03:13;11.00;;;6.45;;
34767;SDS011;21755;43.608;1.236;2023-02-28T06:05:39;17.83;;;9.30;;
34767;SDS011;21755;43.608;1.236;2023-02-28T06:08:05;21.08;;;10.13;;
34767;SDS011;21755;43.608;1.236;2023-02-28T06:10:32;18.42;;;9.32;;
34767;SDS011;21755;43.608;1.236;2023-02-28T06:13:00;21.70;;;11.57;;
34767;SDS011;21755;43.608;1.236;2023-02-28T06:15:30;23.13;;;10.55;;
34767;SDS011;21755;43.608;1.236;2023-02-28T06:17:56;25.60;;;11.75;;
34767;SDS011;21755;43.608;1.236;2023-02-28T06:20:22;14.98;;;8.63;;
34767;SDS011;21755;43.608;1.236;2023-02-28T06:22:49;18.70;;;8.73;;
34767;SDS011;21755;43.608;1.236;2023-02-28T06:25:16;14.07;;;8.60;;
34767;SDS011;21755;43.608;1.236;2023-02-28T06:27:42;18.13;;;9.43;;
34767;SDS011;21755;43.608;1.236;2023-02-28T06:30:09;20.70;;;9.73;;
34767;SDS011;21755;43.608;1.236;2023-02-28T06:32:36;25.15;;;10.43;;
34767;SDS011;21755;43.608;1.236;2023-02-28T06:35:02;19.65;;;9.70;;
34767;SDS011;21755;43.608;1.236;2023-02-28T06:37:30;20.92;;;10.23;;
34767;SDS011;21755;43.608;1.236;2023-02-28T06:39:56;16.98;;;9.32;;
34767;SDS011;21755;43.608;1.236;2023-02-28T06:42:23;14.60;;;9.05;;
34767;SDS011;21755;43.608;1.236;2023-02-28T06:44:53;14.05;;;7.60;;
34767;SDS011;21755;43.608;1.236;2023-02-28T06:47:20;14.85;;;8.00;;
34767;SDS011;21755;43.608;1.236;2023-02-28T06:49:46;16.42;;;7.78;;
34767;SDS011;21755;43.608;1.236;2023-02-28T06:52:12;17.67;;;8.57;;
34767;SDS011;21755;43.608;1.236;2023-02-28T06:54:39;15.07;;;7.97;;
34767;SDS011;21755;43.608;1.236;2023-02-28T06:57:05;19.88;;;10.02;;
34767;SDS011;21755;43.608;1.236;2023-02-28T06:59:31;28.13;;;13.68;;
34767;SDS011;21755;43.608;1.236;2023-02-28T07:01:57;41.47;;;18.08;;
34767;SDS011;21755;43.608;1.236;2023-02-28T07:04:22;44.75;;;19.48;;
34767;SDS011;21755;43.608;1.236;2023-02-28T07:06:49;32.92;;;15.13;;
34767;SDS011;21755;43.608;1.236;2023-02-28T07:09:14;26.42;;;13.40;;
34767;SDS011;21755;43.608;1.236;2023-02-28T07:11:41;23.00;;;11.60;;
34767;SDS011;21755;43.608;1.236;2023-02-28T07:14:08;17.88;;;9.23;;
34767;SDS011;21755;43.608;1.236;2023-02-28T07:16:35;16.35;;;8.88;;
34767;SDS011;21755;43.608;1.236;2023-02-28T07:19:01;13.02;;;7.95;;
34767;SDS011;21755;43.608;1.236;2023-02-28T07:21:27;15.65;;;7.63;;
34767;SDS011;21755;43.608;1.236;2023-02-28T07:23:53;20.15;;;8.55;;
34767;SDS011;21755;43.608;1.236;2023-02-28T07:26:19;16.95;;;7.90;;
34767;SDS011;21755;43.608;1.236;2023-02-28T07:28:46;12.57;;;6.88;;
34767;SDS011;21755;43.608;1.236;2023-02-28T07:31:13;11.27;;;6.90;;
34767;SDS011;21755;43.608;1.236;2023-02-28T07:33:40;12.93;;;6.68;;
34767;SDS011;21755;43.608;1.236;2023-02-28T07:36:08;9.43;;;6.28;;
34767;SDS011;21755;43.608;1.236;2023-02-28T07:38:40;15.38;;;7.68;;
34767;SDS011;21755;43.608;1.236;2023-02-28T07:41:07;11.88;;;7.10;;
34767;SDS011;21755;43.608;1.236;2023-02-28T07:43:33;11.05;;;6.28;;
34767;SDS011;21755;43.608;1.236;2023-02-28T07:46:07;13.77;;;6.55;;
34767;SDS011;21755;43.608;1.236;2023-02-28T07:48:35;13.23;;;7.03;;
34767;SDS011;21755;43.608;1.236;2023-02-28T07:51:01;12.20;;;6.38;;
34767;SDS011;21755;43.608;1.236;2023-02-28T07:53:27;14.48;;;6.30;;
34767;SDS011;21755;43.608;1.236;2023-02-28T07:55:54;14.85;;;5.97;;
34767;SDS011;21755;43.608;1.236;2023-02-28T07:58:24;9.45;;;5.82;;
34767;SDS011;21755;43.608;1.236;2023-02-28T08:00:51;12.20;;;6.00;;
34767;SDS011;21755;43.608;1.236;2023-02-28T08:03:18;10.18;;;5.60;;
34767;SDS011;21755;43.608;1.236;2023-02-28T08:05:45;10.25;;;6.80;;
34767;SDS011;21755;43.608;1.236;2023-02-28T08:08:11;9.77;;;5.30;;
34767;SDS011;21755;43.608;1.236;2023-02-28T08:10:37;7.28;;;5.40;;
34767;SDS011;21755;43.608;1.236;2023-02-28T08:13:03;9.80;;;5.32;;
34767;SDS011;21755;43.608;1.236;2023-02-28T08:15:29;10.55;;;5.97;;
34767;SDS011;21755;43.608;1.236;2023-02-28T08:17:55;10.10;;;5.88;;
34767;SDS011;21755;43.608;1.236;2023-02-28T08:20:21;10.82;;;5.70;;
34767;SDS011;21755;43.608;1.236;2023-02-28T08:22:48;10.52;;;5.57;;
34767;SDS011;21755;43.608;1.236;2023-02-28T08:25:14;8.52;;;5.82;;
34767;SDS011;21755;43.608;1.236;2023-02-28T08:27:40;10.30;;;5.80;;
34767;SDS011;21755;43.608;1.236;2023-02-28T08:30:06;14.27;;;6.65;;
34767;SDS011;21755;43.608;1.236;2023-02-28T08:32:33;11.75;;;6.32;;
34767;SDS011;21755;43.608;1.236;2023-02-28T08:34:59;9.85;;;5.22;;
34767;SDS011;21755;43.608;1.236;2023-02-28T08:37:25;11.90;;;6.70;;
34767;SDS011;21755;43.608;1.236;2023-02-28T08:39:51;8.18;;;5.53;;
34767;SDS011;21755;43.608;1.236;2023-02-28T08:42:17;13.82;;;6.82;;
34767;SDS011;21755;43.608;1.236;2023-02-28T08:44:42;12.93;;;5.95;;
34767;SDS011;21755;43.608;1.236;2023-02-28T08:47:08;10.35;;;6.13;;
34767;SDS011;21755;43.608;1.236;2023-02-28T08:49:34;14.50;;;6.13;;
34767;SDS011;21755;43.608;1.236;2023-02-28T08:52:01;13.38;;;6.50;;
34767;SDS011;21755;43.608;1.236;2023-02-28T08:54:27;11.20;;;5.47;;
34767;SDS011;21755;43.608;1.236;2023-02-28T08:56:55;13.68;;;6.65;;
34767;SDS011;21755;43.608;1.236;2023-02-28T08:59:21;9.18;;;5.47;;
34767;SDS011;21755;43.608;1.236;2023-02-28T09:01:47;12.57;;;5.97;;
34767;SDS011;21755;43.608;1.236;2023-02-28T09:04:13;10.02;;;5.68;;
34767;SDS011;21755;43.608;1.236;2023-02-28T09:06:39;9.95;;;5.80;;
34767;SDS011;21755;43.608;1.236;2023-02-28T09:09:05;8.82;;;5.63;;
34767;SDS011;21755;43.608;1.236;2023-02-28T09:11:33;7.72;;;5.40;;
34767;SDS011;21755;43.608;1.236;2023-02-28T09:14:00;11.60;;;6.40;;
34767;SDS011;21755;43.608;1.236;2023-02-28T09:16:28;15.02;;;6.20;;
34767;SDS011;21755;43.608;1.236;2023-02-28T09:18:56;10.50;;;6.28;;
34767;SDS011;21755;43.608;1.236;2023-02-28T09:21:22;9.80;;;6.00;;
34767;SDS011;21755;43.608;1.236;2023-02-28T09:23:49;12.95;;;5.55;;
34767;SDS011;21755;43.608;1.236;2023-02-28T09:26:26;10.18;;;6.03;;
34767;SDS011;21755;43.608;1.236;2023-02-28T09:28:52;8.98;;;5.35;;
34767;SDS011;21755;43.608;1.236;2023-02-28T09:31:21;10.18;;;6.00;;
34767;SDS011;21755;43.608;1.236;2023-02-28T09:33:52;8.73;;;5.75;;
34767;SDS011;21755;43.608;1.236;2023-02-28T09:36:20;9.13;;;5.43;;
34767;SDS011;21755;43.608;1.236;2023-02-28T09:38:46;12.52;;;5.75;;
34767;SDS011;21755;43.608;1.236;2023-02-28T09:41:14;9.65;;;5.55;;
34767;SDS011;21755;43.608;1.236;2023-02-28T09:43:49;11.02;;;6.57;;
34767;SDS011;21755;43.608;1.236;2023-02-28T09:48:50;15.30;;;6.85;;
34767;SDS011;21755;43.608;1.236;2023-02-28T09:54:23;11.73;;;6.50;;
34767;SDS011;21755;43.608;1.236;2023-02-28T09:56:53;11.00;;;6.05;;
34767;SDS011;21755;43.608;1.236;2023-02-28T10:04:59;11.70;;;6.03;;
34767;SDS011;21755;43.608;1.236;2023-02-28T10:10:23;8.50;;;5.47;;
34767;SDS011;21755;43.608;1.236;2023-02-28T10:12:59;10.10;;;5.77;;
34767;SDS011;21755;43.608;1.236;2023-02-28T10:15:29;10.95;;;5.60;;
34767;SDS011;21755;43.608;1.236;2023-02-28T10:17:58;9.23;;;5.80;;
34767;SDS011;21755;43.608;1.236;2023-02-28T10:20:29;8.48;;;5.13;;
34767;SDS011;21755;43.608;1.236;2023-02-28T10:25:59;12.95;;;6.82;;
34767;SDS011;21755;43.608;1.236;2023-02-28T10:28:30;12.48;;;6.15;;
34767;SDS011;21755;43.608;1.236;2023-02-28T10:30:56;9.05;;;5.55;;
34767;SDS011;21755;43.608;1.236;2023-02-28T10:33:34;10.90;;;5.40;;
34767;SDS011;21755;43.608;1.236;2023-02-28T10:36:00;12.20;;;6.30;;
34767;SDS011;21755;43.608;1.236;2023-02-28T10:38:31;11.23;;;5.70;;
34767;SDS011;21755;43.608;1.236;2023-02-28T10:43:37;11.55;;;6.93;;
34767;SDS011;21755;43.608;1.236;2023-02-28T10:49:22;12.50;;;6.72;;
34767;SDS011;21755;43.608;1.236;2023-02-28T10:51:39;9.77;;;6.10;;
34767;SDS011;21755;43.608;1.236;2023-02-28T10:54:13;14.88;;;6.60;;
34767;SDS011;21755;43.608;1.236;2023-02-28T10:56:45;9.25;;;6.43;;
34767;SDS011;21755;43.608;1.236;2023-02-28T10:59:30;11.15;;;6.55;;
34767;SDS011;21755;43.608;1.236;2023-02-28T11:01:56;10.60;;;6.53;;
34767;SDS011;21755;43.608;1.236;2023-02-28T11:07:01;8.98;;;5.97;;
34767;SDS011;21755;43.608;1.236;2023-02-28T11:12:04;12.20;;;6.85;;
34767;SDS011;21755;43.608;1.236;2023-02-28T11:14:49;12.00;;;6.97;;
34767;SDS011;21755;43.608;1.236;2023-02-28T11:17:20;10.57;;;6.15;;
34767;SDS011;21755;43.608;1.236;2023-02-28T11:19:53;14.43;;;6.35;;
34767;SDS011;21755;43.608;1.236;2023-02-28T11:22:28;11.23;;;6.22;;
34767;SDS011;21755;43.608;1.236;2023-02-28T11:25:30;11.70;;;5.90;;
34767;SDS011;21755;43.608;1.236;2023-02-28T11:27:59;13.93;;;7.15;;
34767;SDS011;21755;43.608;1.236;2023-02-28T11:35:46;8.00;;;4.65;;
34767;SDS011;21755;43.608;1.236;2023-02-28T11:38:14;9.25;;;5.57;;
34767;SDS011;21755;43.608;1.236;2023-02-28T11:54:47;17.80;;;6.85;;
34767;SDS011;21755;43.608;1.236;2023-02-28T12:00:10;9.90;;;6.13;;
34767;SDS011;21755;43.608;1.236;2023-02-28T12:06:09;10.40;;;6.30;;
34767;SDS011;21755;43.608;1.236;2023-02-28T12:09:13;8.15;;;5.63;;
34767;SDS011;21755;43.608;1.236;2023-02-28T12:14:38;7.97;;;5.60;;
34767;SDS011;21755;43.608;1.236;2023-02-28T12:28:49;11.57;;;6.50;;
34767;SDS011;21755;43.608;1.236;2023-02-28T12:31:28;8.15;;;4.78;;
34767;SDS011;21755;43.608;1.236;2023-02-28T12:33:59;12.10;;;5.90;;
34767;SDS011;21755;43.608;1.236;2023-02-28T12:36:30;8.27;;;5.05;;
34767;SDS011;21755;43.608;1.236;2023-02-28T12:39:00;11.20;;;5.57;;
34767;SDS011;21755;43.608;1.236;2023-02-28T12:41:39;12.00;;;5.75;;
34767;SDS011;21755;43.608;1.236;2023-02-28T12:44:08;9.27;;;5.70;;
34767;SDS011;21755;43.608;1.236;2023-02-28T12:46:49;11.35;;;5.97;;
34767;SDS011;21755;43.608;1.236;2023-02-28T12:49:28;10.90;;;6.22;;
34767;SDS011;21755;43.608;1.236;2023-02-28T12:51:59;12.70;;;5.93;;
34767;SDS011;21755;43.608;1.236;2023-02-28T12:54:36;11.63;;;6.07;;
34767;SDS011;21755;43.608;1.236;2023-02-28T12:59:45;10.20;;;5.72;;
34767;SDS011;21755;43.608;1.236;2023-02-28T13:08:17;12.05;;;5.45;;
34767;SDS011;21755;43.608;1.236;2023-02-28T13:11:06;7.55;;;4.88;;
34767;SDS011;21755;43.608;1.236;2023-02-28T13:13:32;9.85;;;5.32;;
34767;SDS011;21755;43.608;1.236;2023-02-28T13:15:59;13.32;;;5.80;;
34767;SDS011;21755;43.608;1.236;2023-02-28T13:18:30;10.82;;;5.78;;
34767;SDS011;21755;43.608;1.236;2023-02-28T13:21:29;9.75;;;5.15;;
34767;SDS011;21755;43.608;1.236;2023-02-28T13:24:02;7.97;;;5.45;;
34767;SDS011;21755;43.608;1.236;2023-02-28T13:31:27;5.85;;;4.32;;
34767;SDS011;21755;43.608;1.236;2023-02-28T13:36:32;7.13;;;4.47;;
34767;SDS011;21755;43.608;1.236;2023-02-28T13:38:59;9.75;;;5.03;;
34767;SDS011;21755;43.608;1.236;2023-02-28T13:44:06;6.38;;;4.22;;
34767;SDS011;21755;43.608;1.236;2023-02-28T13:49:18;6.68;;;4.43;;
34767;SDS011;21755;43.608;1.236;2023-02-28T13:51:53;7.20;;;4.22;;
34767;SDS011;21755;43.608;1.236;2023-02-28T14:03:14;9.02;;;4.53;;
34767;SDS011;21755;43.608;1.236;2023-02-28T14:11:28;7.32;;;4.88;;
34767;SDS011;21755;43.608;1.236;2023-02-28T14:13:54;10.35;;;5.28;;
34767;SDS011;21755;43.608;1.236;2023-02-28T14:16:21;8.82;;;4.70;;
34767;SDS011;21755;43.608;1.236;2023-02-28T14:18:55;6.68;;;4.45;;
34767;SDS011;21755;43.608;1.236;2023-02-28T14:21:35;6.72;;;4.47;;
34767;SDS011;21755;43.608;1.236;2023-02-28T14:32:35;8.93;;;4.65;;
34767;SDS011;21755;43.608;1.236;2023-02-28T14:37:41;6.88;;;4.38;;
34767;SDS011;21755;43.608;1.236;2023-02-28T14:40:13;10.63;;;5.60;;
34767;SDS011;21755;43.608;1.236;2023-02-28T14:42:47;7.65;;;4.53;;
34767;SDS011;21755;43.608;1.236;2023-02-28T14:45:21;8.65;;;4.53;;
34767;SDS011;21755;43.608;1.236;2023-02-28T14:47:49;6.50;;;4.85;;
34767;SDS011;21755;43.608;1.236;2023-02-28T14:50:17;12.80;;;5.57;;
34767;SDS011;21755;43.608;1.236;2023-02-28T14:52:45;9.82;;;4.50;;
34767;SDS011;21755;43.608;1.236;2023-02-28T14:55:12;6.13;;;4.25;;
34767;SDS011;21755;43.608;1.236;2023-02-28T14:57:50;6.47;;;4.45;;
34767;SDS011;21755;43.608;1.236;2023-02-28T15:00:46;5.72;;;4.10;;
34767;SDS011;21755;43.608;1.236;2023-02-28T15:03:18;8.52;;;4.05;;
34767;SDS011;21755;43.608;1.236;2023-02-28T15:06:01;7.82;;;4.93;;
34767;SDS011;21755;43.608;1.236;2023-02-28T15:08:29;6.97;;;4.47;;
34767;SDS011;21755;43.608;1.236;2023-02-28T15:11:13;8.10;;;4.78;;
34767;SDS011;21755;43.608;1.236;2023-02-28T15:13:50;7.57;;;3.97;;
34767;SDS011;21755;43.608;1.236;2023-02-28T15:16:19;6.38;;;4.28;;
34767;SDS011;21755;43.608;1.236;2023-02-28T15:18:55;8.80;;;5.40;;
34767;SDS011;21755;43.608;1.236;2023-02-28T15:21:43;10.32;;;5.20;;
34767;SDS011;21755;43.608;1.236;2023-02-28T15:24:19;6.97;;;4.65;;
34767;SDS011;21755;43.608;1.236;2023-02-28T15:27:00;9.57;;;4.68;;
34767;SDS011;21755;43.608;1.236;2023-02-28T15:29:30;8.43;;;4.32;;
34767;SDS011;21755;43.608;1.236;2023-02-28T15:32:16;6.05;;;4.35;;
34767;SDS011;21755;43.608;1.236;2023-02-28T15:34:54;8.48;;;4.30;;
34767;SDS011;21755;43.608;1.236;2023-02-28T15:37:38;8.45;;;4.80;;
34767;SDS011;21755;43.608;1.236;2023-02-28T15:42:40;8.18;;;3.92;;
34767;SDS011;21755;43.608;1.236;2023-02-28T15:48:16;8.18;;;4.53;;
34767;SDS011;21755;43.608;1.236;2023-02-28T15:50:52;6.72;;;4.00;;
34767;SDS011;21755;43.608;1.236;2023-02-28T15:53:24;8.25;;;4.53;;
34767;SDS011;21755;43.608;1.236;2023-02-28T15:55:57;7.78;;;4.82;;
34767;SDS011;21755;43.608;1.236;2023-02-28T15:58:26;8.65;;;4.47;;
34767;SDS011;21755;43.608;1.236;2023-02-28T16:03:51;10.65;;;4.40;;
34767;SDS011;21755;43.608;1.236;2023-02-28T16:09:08;6.85;;;3.95;;
34767;SDS011;21755;43.608;1.236;2023-02-28T16:11:38;8.60;;;4.22;;
34767;SDS011;21755;43.608;1.236;2023-02-28T16:14:08;5.03;;;3.45;;
34767;SDS011;21755;43.608;1.236;2023-02-28T16:16:41;8.55;;;4.00;;
34767;SDS011;21755;43.608;1.236;2023-02-28T16:19:09;9.27;;;4.38;;
34767;SDS011;21755;43.608;1.236;2023-02-28T16:21:36;7.55;;;4.40;;
34767;SDS011;21755;43.608;1.236;2023-02-28T16:24:01;6.57;;;4.07;;
34767;SDS011;21755;43.608;1.236;2023-02-28T16:26:27;11.15;;;4.80;;
34767;SDS011;21755;43.608;1.236;2023-02-28T16:28:53;7.72;;;4.32;;
34767;SDS011;21755;43.608;1.236;2023-02-28T16:31:20;6.93;;;4.30;;
34767;SDS011;21755;43.608;1.236;2023-02-28T16:33:46;10.25;;;4.13;;
34767;SDS011;21755;43.608;1.236;2023-02-28T16:36:13;7.40;;;4.45;;
34767;SDS011;21755;43.608;1.236;2023-02-28T16:38:43;6.57;;;3.83;;
34767;SDS011;21755;43.608;1.236;2023-02-28T16:41:12;5.90;;;3.67;;
34767;SDS011;21755;43.608;1.236;2023-02-28T16:43:44;4.93;;;3.60;;
34767;SDS011;21755;43.608;1.236;2023-02-28T16:46:12;10.02;;;4.70;;
34767;SDS011;21755;43.608;1.236;2023-02-28T16:48:39;9.60;;;4.55;;
34767;SDS011;21755;43.608;1.236;2023-02-28T16:51:06;7.07;;;4.55;;
34767;SDS011;21755;43.608;1.236;2023-02-28T16:53:36;7.63;;;4.28;;
34767;SDS011;21755;43.608;1.236;2023-02-28T16:56:02;7.40;;;4.47;;
34767;SDS011;21755;43.608;1.236;2023-02-28T16:58:29;10.63;;;4.72;;
34767;SDS011;21755;43.608;1.236;2023-02-28T17:00:55;7.93;;;3.95;;
34767;SDS011;21755;43.608;1.236;2023-02-28T17:03:25;9.82;;;3.78;;
34767;SDS011;21755;43.608;1.236;2023-02-28T17:05:52;5.45;;;3.60;;
34767;SDS011;21755;43.608;1.236;2023-02-28T17:08:18;6.95;;;4.95;;
34767;SDS011;21755;43.608;1.236;2023-02-28T17:10:44;7.72;;;4.60;;
34767;SDS011;21755;43.608;1.236;2023-02-28T17:13:10;12.23;;;4.55;;
34767;SDS011;21755;43.608;1.236;2023-02-28T17:15:37;12.00;;;4.75;;
34767;SDS011;21755;43.608;1.236;2023-02-28T17:18:04;10.18;;;5.00;;
34767;SDS011;21755;43.608;1.236;2023-02-28T17:20:30;9.18;;;4.78;;
34767;SDS011;21755;43.608;1.236;2023-02-28T17:22:56;8.15;;;5.00;;
34767;SDS011;21755;43.608;1.236;2023-02-28T17:25:23;11.88;;;5.05;;
34767;SDS011;21755;43.608;1.236;2023-02-28T17:27:49;12.30;;;5.25;;
34767;SDS011;21755;43.608;1.236;2023-02-28T17:30:22;12.52;;;6.30;;
34767;SDS011;21755;43.608;1.236;2023-02-28T17:32:49;8.70;;;5.18;;